Raisin City, CA

6:05 PM PDT on August 22, 2014 (GMT -0700)
GFWS45 | Change Station
CLOSE
Current Station
Personal Weather Station
Location: Raisin City, CA
Elevation: 223 ft
Nearby Weather Stations

Elev 223 ft 36.63 °N, 119.97 °W | Updated 10 minutes ago

Clear
Clear
96.6 °F
Feels Like 95 °F
N
2.0
Wind Variable Wind from NE
Gusts 5.0 mph

Today
High -- | Low -- °F
--% Chance of Precip.
Yesterday
High -- | Low -- °F
Precip. -- in
6:22 AM 7:41 PM
Waning Crescent, 6% visible
Pressure 29.78 in
Visibility 10.0 miles
Clouds Clear
Heat Index 95 °F
Dew Point 55 °F
Humidity 25%
Rainfall 0.00 in
Snow Depth Not available.
UV 2 out of 12
Pollen 9.00 out of 12
Air Quality Not available.
Flu Activity Not available.
METAR KFAT 230053Z 28007KT 10SM CLR 37/08 A2979 RMK AO2 SLP082 MTNS PTLY OBSC FU HZ DSNT N-E-SE T03720078

More Conditions Fewer Conditions

Pressure 29.78 in
Visibility 10.0 miles
Clouds Clear
Heat Index 95 °F
Dew Point 55 °F
Humidity 25%
Rainfall 0.00 in
Snow Depth Not available.
UV 2 out of 12
Pollen 9.00 out of 12
Air Quality Not available.
Flu Activity Not available.
METAR KFAT 230053Z 28007KT 10SM CLR 37/08 A2979 RMK AO2 SLP082 MTNS PTLY OBSC FU HZ DSNT N-E-SE T03720078

More Conditions Fewer Conditions

10-Day Weather Forecast

Almanac

Astronomy

Aug. 22, 2014 Rise Set
Actual Time 6:22 AM PDT 7:41 PM PDT
Civil Twilight 5:55 AM PDT 8:08 PM PDT
Nautical Twilight 5:23 AM PDT 8:40 PM PDT
Astronomical Twilight 4:49 AM PDT 9:13 PM PDT
Moon 3:51 AM PDT (8/22) 5:51 PM PDT (8/22)
Length of Visible Light 14h 12m
Length of Day
13h 18m
Tomorrow will be 2m 8s shorter.
Waning Crescent, 6% of the Moon is Illuminated
Today
Waning Crescent
Aug 25
New
Sep 2
First Quarter
Sep 8
Full
Sep 15
Last Quarter

Today's Extremes

State Highs State Lows

Community

WunderPhotos

Upload Photos

1,746,336 photos uploaded!

WunderBlogs® & News

Nearby

Air Quality

  Air Quality AQ Index Pollutant
Friday Moderate
OZONE
Saturday Moderate
OZONE
Sunday Moderate
OZONE
Monday Moderate
OZONE
Tuesday Moderate
OZONE
Wednesday Moderate
OZONE

Snow Depth

Station Depth Elevation
Leavitt Lake 0 in 9400 ft
Leavitt Meadows 0 in 7200 ft
Summit Meadow 0 in 9122 ft
Echo Peak 0 in 7800 ft
CSS Lab 2 in 6900 ft

Earthquake Activity

City Distance Mag. Time & Date
King City, California 58 miles 2.7 10:26 PM PDT
2014-08-15
Minimum magnitude displayed is 2.5.

Coastal Water Temperatures

Place Temperature
No Stations Reporting

Nearby Weather Stations